Time;durP1;ratioP1;P1;durP2;ratioP2;P2;SDS_P1;SDS_P2;PMS_P1;PMS_P2;Temp;Humidity;BMP_temperature;BMP_pressure;BME280_temperature;BME280_humidity;BME280_pressure;Samples;Min_cycle;Max_cycle;Signal;HPM_P1;HPM_P2
2022/03/22 00:00:34;;;;;;;12.13;8.50;;;4.40;99.90;;;;;;5111937;28;20441;-71
2022/03/22 00:03:01;;;;;;;13.07;8.07;;;4.30;99.90;;;;;;5112804;28;20477;-71
2022/03/22 00:05:28;;;;;;;12.70;8.60;;;4.30;99.90;;;;;;5112449;28;20501;-70
2022/03/22 00:07:55;;;;;;;9.83;6.90;;;4.30;99.90;;;;;;5103327;28;20470;-72
2022/03/22 00:10:22;;;;;;;10.37;8.23;;;4.30;99.90;;;;;;5112770;28;20443;-72
2022/03/22 00:12:49;;;;;;;14.70;8.80;;;4.10;99.90;;;;;;5100187;28;20845;-71
2022/03/22 00:15:17;;;;;;;12.10;8.63;;;4.00;99.90;;;;;;5108872;28;20448;-71
2022/03/22 00:17:46;;;;;;;12.07;8.40;;;3.90;99.90;;;;;;5111768;28;20451;-72
2022/03/22 00:20:13;;;;;;;12.67;7.23;;;4.00;99.90;;;;;;5107498;28;20440;-71
2022/03/22 00:22:40;;;;;;;12.33;7.80;;;4.20;99.90;;;;;;5111352;28;20483;-71
2022/03/22 00:25:09;;;;;;;10.30;7.83;;;4.00;99.90;;;;;;5099324;28;20468;-72
2022/03/22 00:30:17;;;;;;;8.70;7.13;;;3.60;99.90;;;;;;5112403;28;20437;-72
2022/03/22 00:32:45;;;;;;;10.83;7.97;;;3.70;99.90;;;;;;5111222;28;20488;-71
2022/03/22 00:35:12;;;;;;;14.10;8.97;;;3.50;1.00;;;;;;5103257;28;20447;-72
2022/03/22 00:37:41;;;;;;;12.40;8.60;;;3.50;1.00;;;;;;5103196;28;20448;-71
2022/03/22 00:40:12;;;;;;;14.73;8.60;;;3.80;99.90;;;;;;5102268;28;20452;-72
2022/03/22 00:42:39;;;;;;;14.37;7.90;;;3.60;99.90;;;;;;5104586;28;20780;-71
2022/03/22 00:45:07;;;;;;;14.53;7.07;;;3.60;1.00;;;;;;5103228;28;20439;-70
2022/03/22 00:47:34;;;;;;;15.10;8.13;;;3.50;1.00;;;;;;5099156;28;20441;-73
2022/03/22 00:50:02;;;;;;;13.70;7.90;;;3.30;1.00;;;;;;5105048;28;20487;-71
2022/03/22 00:52:29;;;;;;;12.03;8.20;;;3.40;1.00;;;;;;5109534;28;20448;-70
2022/03/22 00:54:57;;;;;;;12.87;9.03;;;3.40;1.00;;;;;;5104874;28;20494;-71
2022/03/22 00:57:23;;;;;;;11.27;8.40;;;3.40;1.00;;;;;;5106141;28;20531;-71
2022/03/22 01:00:04;;;;;;;11.67;8.10;;;3.60;1.00;;;;;;5103101;28;20534;-71
2022/03/22 01:02:34;;;;;;;13.67;8.67;;;3.60;1.00;;;;;;5103174;28;20514;-71
2022/03/22 01:05:04;;;;;;;12.47;7.67;;;3.40;1.00;;;;;;5105874;28;20972;-71
2022/03/22 01:07:31;;;;;;;12.37;7.03;;;3.30;1.00;;;;;;5109696;28;20527;-71
2022/03/22 01:09:58;;;;;;;11.00;7.90;;;3.50;1.00;;;;;;5098720;28;20440;-70
2022/03/22 01:12:26;;;;;;;12.73;8.20;;;3.50;1.00;;;;;;5110687;28;20465;-70
2022/03/22 01:14:52;;;;;;;12.80;8.00;;;3.40;1.00;;;;;;5107728;28;20455;-71
2022/03/22 01:17:20;;;;;;;12.67;8.10;;;3.30;1.00;;;;;;5111156;28;20841;-71
2022/03/22 01:19:47;;;;;;;8.50;7.37;;;3.30;1.00;;;;;;5102173;28;20999;-72
2022/03/22 01:22:16;;;;;;;12.27;7.17;;;3.20;1.00;;;;;;5101230;28;20604;-72
2022/03/22 01:24:44;;;;;;;13.37;7.77;;;;;;;;;;5097295;28;20959;-72
2022/03/22 01:27:11;;;;;;;14.80;8.43;;;;;;;;;;5110850;28;20953;-71
2022/03/22 01:29:39;;;;;;;11.17;7.20;;;;;;;;;;5110107;28;20451;-73
2022/03/22 01:32:07;;;;;;;12.30;7.30;;;;;;;;;;5111139;28;20449;-72
2022/03/22 01:34:34;;;;;;;14.00;7.67;;;;;;;;;;5106042;28;20479;-71
2022/03/22 01:37:01;;;;;;;10.50;8.20;;;;;;;;;;5100254;28;20973;-71
2022/03/22 01:39:30;;;;;;;13.07;8.20;;;;;;;;;;5110537;28;20454;-70
2022/03/22 01:41:57;;;;;;;11.10;6.80;;;;;;;;;;5111083;28;20508;-72
2022/03/22 01:44:24;;;;;;;9.33;7.80;;;;;;;;;;5111613;28;20579;-72
2022/03/22 01:46:53;;;;;;;10.97;6.47;;;;;;;;;;5110111;28;20539;-72
2022/03/22 01:49:21;;;;;;;14.00;8.07;;;;;;;;;;5099211;28;20455;-71
2022/03/22 01:51:49;;;;;;;12.63;7.93;;;;;;;;;;5110136;28;20947;-71
2022/03/22 01:54:16;;;;;;;9.60;7.30;;;;;;;;;;5109996;28;20538;-71
2022/03/22 01:56:45;;;;;;;13.60;9.00;;;;;;;;;;5104689;28;20439;-70
2022/03/22 01:59:12;;;;;;;10.60;6.67;;;;;;;;;;5097581;28;20537;-72
2022/03/22 02:07:11;;;;;;;11.93;7.90;;;;;;;;;;5110331;28;20419;-72
2022/03/22 02:09:38;;;;;;;10.17;7.80;;;;;;;;;;5098593;28;20940;-71
2022/03/22 02:12:07;;;;;;;13.43;8.90;;;;;;;;;;5104006;28;20604;-72
2022/03/22 02:14:35;;;;;;;16.63;8.33;;;;;;;;;;5103812;28;20447;-71
2022/03/22 02:17:07;;;;;;;9.70;7.87;;;;;;;;;;5091104;28;20441;-72
2022/03/22 02:19:35;;;;;;;15.67;8.47;;;;;;;;;;5099465;28;20451;-72
2022/03/22 02:22:03;;;;;;;13.70;7.97;;;;;;;;;;5110789;28;20441;-72
2022/03/22 02:24:32;;;;;;;13.00;8.23;;;;;;;;;;5113605;28;20517;-71
2022/03/22 02:26:59;;;;;;;10.47;7.83;;;;;;;;;;5105986;28;20460;-71
2022/03/22 02:29:27;;;;;;;13.77;9.13;;;;;;;;;;5103052;28;20447;-72
2022/03/22 02:31:55;;;;;;;12.27;7.50;;;;;;;;;;5111975;28;20477;-71
2022/03/22 02:34:22;;;;;;;13.97;9.43;;;;;;;;;;5110338;28;20530;-71
2022/03/22 02:36:49;;;;;;;12.73;9.07;;;;;;;;;;5101744;28;20531;-71
2022/03/22 02:39:16;;;;;;;16.10;9.30;;;;;;;;;;5113873;28;20562;-72
2022/03/22 02:41:45;;;;;;;11.90;8.83;;;;;;;;;;5110985;28;20444;-71
2022/03/22 02:44:12;;;;;;;12.60;7.60;;;;;;;;;;5101033;28;20479;-71
2022/03/22 02:46:39;;;;;;;12.80;8.63;;;;;;;;;;5103401;28;20445;-70
2022/03/22 02:49:07;;;;;;;12.47;7.40;;;;;;;;;;5110974;28;20515;-70
2022/03/22 02:51:34;;;;;;;12.27;8.33;;;;;;;;;;5112984;28;20799;-71
2022/03/22 02:54:01;;;;;;;11.67;7.07;;;;;;;;;;5111816;28;20451;-71
2022/03/22 02:56:28;;;;;;;13.40;9.27;;;;;;;;;;5111464;28;20576;-70
2022/03/22 02:58:57;;;;;;;16.63;9.60;;;;;;;;;;5098544;28;20808;-71
2022/03/22 03:01:24;;;;;;;13.17;9.37;;;;;;;;;;5114548;28;20454;-71
2022/03/22 03:03:51;;;;;;;13.50;7.70;;;;;;;;;;5113056;28;21002;-71
2022/03/22 03:06:19;;;;;;;14.73;8.27;;;;;;;;;;5114051;28;20829;-71
2022/03/22 03:08:46;;;;;;;16.77;10.20;;;;;;;;;;5096671;28;20439;-70
2022/03/22 03:11:13;;;;;;;15.03;8.53;;;;;;;;;;5094332;28;20919;-72
2022/03/22 03:16:27;;;;;;;13.53;8.57;;;;;;;;;;5114825;28;20523;-71
2022/03/22 03:18:54;;;;;;;13.90;9.10;;;;;;;;;;5112101;28;20487;-71
2022/03/22 03:21:21;;;;;;;14.60;8.87;;;;;;;;;;5112305;28;20451;-71
2022/03/22 03:23:49;;;;;;;11.73;8.37;;;;;;;;;;5106679;28;21038;-71
2022/03/22 03:26:16;;;;;;;14.07;8.87;;;;;;;;;;5114859;28;20943;-71
2022/03/22 03:28:43;;;;;;;12.67;8.23;;;;;;;;;;5106928;28;20448;-72
2022/03/22 03:31:10;;;;;;;11.10;8.77;;;;;;;;;;5114223;28;20481;-73
2022/03/22 03:33:39;;;;;;;13.70;8.33;;;;;;;;;;5112995;28;21265;-71
2022/03/22 03:36:06;;;;;;;10.47;7.70;;;;;;;;;;5109979;28;20861;-71
2022/03/22 03:38:41;;;;;;;12.70;8.83;;;;;;;;;;5112559;28;20534;-70
2022/03/22 03:43:53;;;;;;;11.67;7.67;;;;;;;;;;5109446;28;20585;-70
2022/03/22 03:49:07;;;;;;;13.50;8.70;;;;;;;;;;5112802;28;20444;-72
2022/03/22 03:51:34;;;;;;;12.27;8.13;;;;;;;;;;5102782;28;20535;-71
2022/03/22 03:54:01;;;;;;;12.77;9.40;;;;;;;;;;5102315;28;20474;-71
2022/03/22 03:56:29;;;;;;;16.17;9.97;;;;;;;;;;5113033;28;20510;-71
2022/03/22 03:58:57;;;;;;;14.50;9.83;;;;;;;;;;5109756;28;20455;-72
2022/03/22 04:01:25;;;;;;;14.00;9.67;;;;;;;;;;5103618;28;20443;-71
2022/03/22 04:03:52;;;;;;;10.33;8.27;;;;;;;;;;5098898;28;20504;-71
2022/03/22 04:06:20;;;;;;;13.50;9.10;;;;;;;;;;5112363;28;20536;-71
2022/03/22 04:08:48;;;;;;;13.93;9.23;;;;;;;;;;5105906;28;20820;-71
2022/03/22 04:11:15;;;;;;;12.23;9.00;;;;;;;;;;5108274;28;20784;-71
2022/03/22 04:13:42;;;;;;;14.70;9.30;;;;;;;;;;5112065;28;20541;-71
2022/03/22 04:16:09;;;;;;;13.17;8.80;;;;;;;;;;5112941;28;20447;-71
2022/03/22 04:18:37;;;;;;;13.00;9.53;;;;;;;;;;5103586;28;20510;-72
2022/03/22 04:21:04;;;;;;;12.57;8.53;;;;;;;;;;5112366;28;20462;-70
2022/03/22 04:23:32;;;;;;;13.07;9.90;;;;;;;;;;5104599;28;20473;-70
2022/03/22 04:26:00;;;;;;;12.87;8.23;;;;;;;;;;5102985;28;20440;-71
2022/03/22 04:33:56;;;;;;;13.27;9.10;;;;;;;;;;5096377;28;20436;-71
2022/03/22 04:36:24;;;;;;;14.60;10.07;;;;;;;;;;5112359;28;20547;-71
2022/03/22 04:38:52;;;;;;;16.00;10.20;;;;;;;;;;5111379;28;20451;-71
2022/03/22 04:41:19;;;;;;;12.30;8.07;;;;;;;;;;5098573;28;20836;-70
2022/03/22 04:43:46;;;;;;;13.77;9.70;;;;;;;;;;5100007;28;20903;-70
2022/03/22 04:46:18;;;;;;;13.13;9.30;;;;;;;;;;5103807;28;20812;-71
2022/03/22 04:48:45;;;;;;;13.77;8.70;;;;;;;;;;5107041;28;20463;-71
2022/03/22 04:56:49;;;;;;;15.57;9.60;;;;;;;;;;5071172;28;20939;-71
2022/03/22 04:59:19;;;;;;;14.80;10.00;;;;;;;;;;5085836;28;20511;-71
2022/03/22 05:01:47;;;;;;;13.50;9.23;;;;;;;;;;5090591;28;20801;-72
2022/03/22 05:04:14;;;;;;;16.07;10.80;;;;;;;;;;5090902;28;20580;-71
2022/03/22 05:06:41;;;;;;;12.37;8.20;;;;;;;;;;5090700;28;20449;-71
2022/03/22 05:09:11;;;;;;;13.43;8.40;;;;;;;;;;5084457;28;20455;-72
2022/03/22 05:11:38;;;;;;;9.67;8.67;;;;;;;;;;5080741;28;20466;-70
2022/03/22 05:14:06;;;;;;;13.83;9.40;;;;;;;;;;5091701;28;20989;-72
2022/03/22 05:16:35;;;;;;;13.60;9.10;;;;;;;;;;5090091;28;20494;-71
2022/03/22 05:19:04;;;;;;;14.80;9.80;;;;;;;;;;5085741;28;20530;-71
2022/03/22 05:21:31;;;;;;;13.60;9.70;;;;;;;;;;5090087;28;20446;-70
2022/03/22 05:23:58;;;;;;;12.13;9.27;;;;;;;;;;5088122;28;20495;-70
2022/03/22 05:26:27;;;;;;;14.47;9.60;;;;;;;;;;5091262;28;20443;-71
2022/03/22 05:28:54;;;;;;;15.30;8.70;;;;;;;;;;5076271;28;20955;-71
2022/03/22 05:31:22;;;;;;;14.10;10.20;;;;;;;;;;5089178;28;20491;-70
2022/03/22 05:33:49;;;;;;;12.93;9.27;;;;;;;;;;5090386;28;20454;-70
2022/03/22 05:36:17;;;;;;;13.40;9.20;;;;;;;;;;5090862;28;20450;-72
2022/03/22 05:38:44;;;;;;;13.23;8.13;;;;;;;;;;5089672;28;20449;-70
2022/03/22 05:41:11;;;;;;;12.10;8.93;;;;;;;;;;5080678;28;20447;-70
2022/03/22 05:43:41;;;;;;;17.63;9.50;;;;;;;;;;5083116;28;20530;-71
2022/03/22 05:46:09;;;;;;;17.97;10.80;;;;;;;;;;5085910;28;20940;-72
2022/03/22 05:48:38;;;;;;;18.30;9.13;;;;;;;;;;5075549;28;20528;-71
2022/03/22 05:51:06;;;;;;;14.20;10.10;;;;;;;;;;5074835;28;20450;-70
2022/03/22 05:53:33;;;;;;;13.73;9.23;;;;;;;;;;5070009;28;20867;-70
2022/03/22 05:56:01;;;;;;;16.13;9.77;;;;;;;;;;5106638;28;20564;-71
2022/03/22 05:58:28;;;;;;;16.53;9.07;;;;;;;;;;5109855;28;20453;-70
2022/03/22 06:00:56;;;;;;;13.83;10.03;;;;;;;;;;5111014;28;20448;-71
2022/03/22 06:03:23;;;;;;;16.10;9.97;;;;;;;;;;5107139;28;20447;-71
2022/03/22 06:05:51;;;;;;;15.60;10.37;;;;;;;;;;5098856;28;20542;-74
2022/03/22 06:08:19;;;;;;;19.07;11.13;;;;;;;;;;5109070;28;20555;-72
2022/03/22 06:10:46;;;;;;;16.53;10.73;;;;;;;;;;5110643;28;20454;-72
2022/03/22 06:13:14;;;;;;;19.67;10.33;;;;;;;;;;5107077;28;20467;-69
2022/03/22 06:15:41;;;;;;;13.63;9.90;;;;;;;;;;5099645;28;20474;-73
2022/03/22 06:18:11;;;;;;;17.60;9.90;;;;;;;;;;5110447;28;20549;-72
2022/03/22 06:20:39;;;;;;;16.30;10.43;;;;;;;;;;5110399;28;20451;-72
2022/03/22 06:23:07;;;;;;;15.67;11.00;;;;;;;;;;5110517;28;21003;-72
2022/03/22 06:25:35;;;;;;;17.30;9.93;;;;;;;;;;5109180;28;20576;-71
2022/03/22 06:28:03;;;;;;;21.13;12.43;;;;;;;;;;5110232;28;20499;-72
2022/03/22 06:30:30;;;;;;;16.27;11.20;;;;;;;;;;5110475;28;20463;-72
2022/03/22 06:32:58;;;;;;;16.20;11.73;;;;;;;;;;5098362;28;20448;-73
2022/03/22 06:35:28;;;;;;;15.40;11.03;;;;;;;;;;5105565;28;20456;-72
2022/03/22 06:37:55;;;;;;;19.80;12.03;;;;;;;;;;5103376;28;20528;-72
2022/03/22 06:40:23;;;;;;;17.23;10.87;;;;;;;;;;5108932;28;20878;-72
2022/03/22 06:42:51;;;;;;;19.30;11.80;;;;;;;;;;5103629;28;20472;-72
2022/03/22 06:45:19;;;;;;;16.93;12.27;;;;;;;;;;5110202;28;20638;-73
2022/03/22 06:47:48;;;;;;;23.13;12.80;;;;;;;;;;5104424;28;20459;-72
2022/03/22 06:50:17;;;;;;;22.03;11.90;;;;;;;;;;5106007;28;20458;-74
2022/03/22 06:52:46;;;;;;;16.33;11.70;;;;;;;;;;5104148;28;20459;-71
2022/03/22 06:55:14;;;;;;;15.33;11.00;;;;;;;;;;5106534;28;20586;-71
2022/03/22 06:57:41;;;;;;;17.73;11.40;;;;;;;;;;5105004;28;20448;-70
2022/03/22 07:00:10;;;;;;;16.83;10.90;;;;;;;;;;5107443;28;20444;-71
2022/03/22 07:02:38;;;;;;;15.77;10.70;;;;;;;;;;5106871;28;20968;-71
2022/03/22 07:05:06;;;;;;;17.43;11.33;;;;;;;;;;5107198;28;20482;-70
2022/03/22 07:07:33;;;;;;;16.23;11.30;;;;;;;;;;5105427;28;20537;-71
2022/03/22 07:10:02;;;;;;;18.57;12.37;;;;;;;;;;5108811;28;20453;-71
2022/03/22 07:12:29;;;;;;;14.97;11.10;;;;;;;;;;5100572;28;20850;-71
2022/03/22 07:14:56;;;;;;;14.90;11.57;;;;;;;;;;5109433;28;20461;-72
2022/03/22 07:17:24;;;;;;;14.90;11.47;;;;;;;;;;5112335;28;20455;-72
2022/03/22 07:19:53;;;;;;;18.00;11.70;;;;;;;;;;5109947;28;20516;-73
2022/03/22 07:22:20;;;;;;;19.70;11.70;;;;;;;;;;5112493;28;20547;-72
2022/03/22 07:24:48;;;;;;;13.33;11.13;;;;;;;;;;5112060;28;20997;-72
2022/03/22 07:27:16;;;;;;;13.97;11.10;;;;;;;;;;5112683;28;20872;-72
2022/03/22 07:29:43;;;;;;;18.67;12.37;;;;;;;;;;5110020;28;20526;-72
2022/03/22 07:32:10;;;;;;;17.60;12.23;;;;;;;;;;5112710;28;20505;-72
2022/03/22 07:34:38;;;;;;;22.73;13.23;;;;;;;;;;5111557;28;20544;-71
2022/03/22 07:37:05;;;;;;;18.10;12.03;;;;;;;;;;5111747;28;20527;-72
2022/03/22 07:39:34;;;;;;;21.97;13.20;;;;;;;;;;5107584;28;21040;-71
2022/03/22 07:42:02;;;;;;;19.97;14.03;;;;;;;;;;5110338;28;20579;-71
2022/03/22 07:44:31;;;;;;;17.47;12.67;;;;;;;;;;5107533;28;20474;-70
2022/03/22 07:46:59;;;;;;;20.73;12.50;;;;;;;;;;5108877;28;20458;-72
2022/03/22 07:55:10;;;;;;;18.33;12.47;;;;;;;;;;5027961;28;20517;-71
2022/03/22 07:57:38;;;;;;;20.00;13.57;;;;;;;;;;5074249;28;20439;-72
2022/03/22 08:00:07;;;;;;;18.23;12.60;;;;;;;;;;5111584;28;20436;-72
2022/03/22 08:02:36;;;;;;;18.20;13.57;;;;;;;;;;5110118;28;20531;-72
2022/03/22 08:05:05;;;;;;;19.20;13.50;;;;;;;;;;5112039;28;20654;-72
2022/03/22 08:07:32;;;;;;;18.23;13.47;;;;;;;;;;5104618;28;20480;-72
2022/03/22 08:09:59;;;;;;;20.70;12.30;;;;;;;;;;5106188;28;20475;-72
2022/03/22 08:12:27;;;;;;;19.47;12.97;;;;;;;;;;5109586;28;20497;-71
2022/03/22 08:14:54;;;;;;;19.30;14.00;;;;;;;;;;5110556;28;20452;-73
2022/03/22 08:17:23;;;;;;;23.77;13.90;;;;;;;;;;5110484;28;20983;-72
2022/03/22 08:19:51;;;;;;;18.30;13.73;;;;;;;;;;5107456;28;20925;-72
2022/03/22 08:22:18;;;;;;;17.67;12.70;;;;;;;;;;5111826;28;20828;-71
2022/03/22 08:24:45;;;;;;;19.50;13.40;;;;;;;;;;5105961;28;20932;-72
2022/03/22 08:27:12;;;;;;;22.30;15.17;;;;;;;;;;5106335;28;20444;-72
2022/03/22 08:29:39;;;;;;;21.00;12.87;;;;;;;;;;5108967;28;20475;-72
2022/03/22 08:32:09;;;;;;;22.63;13.90;;;;;;;;;;5107994;28;20479;-73
2022/03/22 08:34:38;;;;;;;14.83;12.40;;;;;;;;;;5110894;28;20864;-73
2022/03/22 08:37:06;;;;;;;19.13;12.67;;;;;;;;;;5105290;28;20456;-72
2022/03/22 08:39:33;;;;;;;17.60;12.10;;;;;;;;;;5109500;28;20536;-72
2022/03/22 08:42:00;;;;;;;18.93;13.30;;;;;;;;;;5111495;28;20534;-72
2022/03/22 08:44:27;;;;;;;16.67;13.03;;;;;;;;;;5110595;28;20957;-73
2022/03/22 08:46:55;;;;;;;19.33;13.50;;;;;;;;;;5108505;28;21023;-72
2022/03/22 08:49:22;;;;;;;17.93;13.10;;;;;;;;;;5104106;28;20476;-72
2022/03/22 08:51:50;;;;;;;21.73;13.53;;;;;;;;;;5108553;28;20471;-73
2022/03/22 08:54:18;;;;;;;17.10;12.70;;;;;;;;;;5108313;28;20474;-73
2022/03/22 08:56:45;;;;;;;22.97;13.90;;;;;;;;;;5108260;28;20451;-73
2022/03/22 08:59:12;;;;;;;21.37;12.77;;;;;;;;;;5108412;28;20486;-73
2022/03/22 09:01:39;;;;;;;20.60;13.43;;;;;;;;;;5107913;28;20471;-71
2022/03/22 09:06:53;;;;;;;15.97;13.37;;;;;;;;;;5107102;28;20435;-72
2022/03/22 09:09:20;;;;;;;22.03;13.97;;;;;;;;;;5109510;28;20876;-73
2022/03/22 09:11:47;;;;;;;19.87;13.73;;;;;;;;;;5110718;28;20583;-73
2022/03/22 09:14:14;;;;;;;17.80;12.90;;;;;;;;;;5100234;28;20479;-72
2022/03/22 09:16:41;;;;;;;22.23;13.37;;;;;;;;;;5110039;28;20594;-72
2022/03/22 09:19:09;;;;;;;21.33;13.93;;;;;;;;;;5105670;28;20534;-72
2022/03/22 09:21:36;;;;;;;18.17;13.40;;;;;;;;;;5108747;28;20534;-70
2022/03/22 09:24:07;;;;;;;22.33;12.93;;;;;;;;;;5109754;28;20443;-71
2022/03/22 09:26:34;;;;;;;29.10;13.70;;;;;;;;;;5104378;28;20463;-71
2022/03/22 09:29:01;;;;;;;20.30;12.90;;;;;;;;;;5109429;28;20471;-71
2022/03/22 09:31:28;;;;;;;15.90;12.67;;;;;;;;;;5098242;28;20521;-71
2022/03/22 09:33:57;;;;;;;17.10;12.37;;;;;;;;;;5109336;28;20443;-72
2022/03/22 09:36:24;;;;;;;21.13;13.60;;;;;;;;;;5100780;28;20546;-71
2022/03/22 09:38:51;;;;;;;21.27;14.20;;;;;;;;;;5106238;28;20455;-71
2022/03/22 09:41:20;;;;;;;20.77;13.90;;;;;;;;;;5109932;28;20444;-71
2022/03/22 09:43:49;;;;;;;15.83;13.13;;;;;;;;;;5108062;28;20707;-71
2022/03/22 09:46:19;;;;;;;17.60;13.33;;;;;;;;;;5106489;28;20995;-71
2022/03/22 09:48:47;;;;;;;19.57;14.10;;;;;;;;;;5103050;28;20520;-71
2022/03/22 09:54:00;;;;;;;19.90;12.87;;;;;;;;;;5105464;28;20822;-71
2022/03/22 09:56:30;;;;;;;20.23;13.60;;;;;;;;;;5104141;28;20474;-70
2022/03/22 09:58:59;;;;;;;16.83;14.03;;;;;;;;;;5105189;28;20560;-71
2022/03/22 10:01:26;;;;;;;20.23;15.10;;;;;;;;;;5113856;28;20451;-70
2022/03/22 10:04:01;;;;;;;22.10;15.07;;;;;;;;;;5112680;28;20992;-74
2022/03/22 10:06:29;;;;;;;17.57;13.87;;;;;;;;;;5110325;28;20471;-72
2022/03/22 10:08:56;;;;;;;19.00;14.07;;;;;;;;;;5109736;28;20844;-72
2022/03/22 10:11:23;;;;;;;20.87;13.77;;;;;;;;;;5112179;28;20535;-73
2022/03/22 10:13:52;;;;;;;18.03;13.50;;;;;;;;;;5107740;28;20867;-71
2022/03/22 10:16:19;;;;;;;20.47;13.40;;;;;;;;;;5108132;28;20505;-70
2022/03/22 10:18:47;;;;;;;24.03;14.63;;;;;;;;;;5109606;28;20440;-71
2022/03/22 10:21:14;;;;;;;22.00;13.63;;;;;;;;;;5109792;28;20447;-69
2022/03/22 10:23:49;;;;;;;19.07;13.77;;;;;;;;;;5108709;28;20464;-71
2022/03/22 10:26:16;;;;;;;18.10;13.20;;;;;;;;;;5110565;28;20475;-72
2022/03/22 10:28:50;;;;;;;18.90;13.77;;;;;;;;;;5102886;28;20470;-73
2022/03/22 10:31:18;;;;;;;20.17;13.73;;;;;;;;;;5108797;28;20440;-73
2022/03/22 10:33:52;;;;;;;21.10;15.50;;;;;;;;;;5108151;28;20535;-71
2022/03/22 10:36:21;;;;;;;18.20;14.07;;;;;;;;;;5106806;28;20444;-71
2022/03/22 10:38:59;;;;;;;18.20;14.87;;;;;;;;;;5104639;28;20444;-71
2022/03/22 10:41:27;;;;;;;21.73;14.30;;;;;;;;;;5110202;28;20457;-72
2022/03/22 10:44:05;;;;;;;20.60;14.50;;;;;;;;;;5106835;28;20451;-71
2022/03/22 10:46:33;;;;;;;19.23;13.70;;;;;;;;;;5109540;28;21027;-71
2022/03/22 10:49:06;;;;;;;19.80;14.40;;;;;;;;;;5108080;28;20530;-71
2022/03/22 10:51:34;;;;;;;17.37;13.40;;;;;;;;;;5110326;28;20446;-71
2022/03/22 10:54:01;;;;;;;17.47;12.63;;;;;;;;;;5110626;28;20782;-71
2022/03/22 10:56:28;;;;;;;18.93;13.60;;;;;;;;;;5109442;28;20514;-70
2022/03/22 10:58:56;;;;;;;23.57;13.90;;;;;;;;;;5111181;28;20455;-71
2022/03/22 11:01:23;;;;;;;24.20;16.10;;;;;;;;;;5110622;28;20454;-72
2022/03/22 11:03:56;;;;;;;18.33;14.10;;;;;;;;;;5106671;28;20542;-72
2022/03/22 11:06:23;;;;;;;18.23;13.03;;;;;;;;;;5107761;28;20523;-72
2022/03/22 11:08:50;;;;;;;21.17;14.50;;;;;;;;;;5109011;28;20444;-72
2022/03/22 11:11:18;;;;;;;19.50;14.23;;;;;;;;;;5110782;28;20546;-71
2022/03/22 11:13:45;;;;;;;18.73;13.87;;;;;;;;;;5106438;28;20539;-71
2022/03/22 11:16:12;;;;;;;19.33;14.40;;;;;;;;;;5109061;28;20453;-71
2022/03/22 11:18:40;;;;;;;18.77;14.70;;;;;;;;;;5111487;28;20462;-72
2022/03/22 11:21:09;;;;;;;19.80;15.10;;;;;;;;;;5112202;28;20492;-72
2022/03/22 11:23:36;;;;;;;21.50;15.37;;;;;;;;;;5111925;28;20474;-73
2022/03/22 11:26:10;;;;;;;18.77;13.77;;;;;;;;;;5110712;28;20524;-72
2022/03/22 11:28:38;;;;;;;22.37;13.93;;;;;;;;;;5107719;28;20522;-74
2022/03/22 11:31:06;;;;;;;24.87;15.07;;;;;;;;;;5112813;28;20479;-72
2022/03/22 11:36:20;;;;;;;17.97;14.40;;;;;;;;;;5111764;28;20496;-74
2022/03/22 11:38:48;;;;;;;19.10;14.00;;;;;;;;;;5111858;28;20725;-75
2022/03/22 11:44:14;;;;;;;16.33;14.00;;;;;;;;;;5113219;28;20434;-74
2022/03/22 11:46:42;;;;;;;22.00;15.50;;;;;;;;;;5108576;28;20475;-74
2022/03/22 11:49:16;;;;;;;16.23;13.77;;;;;;;;;;5110751;28;20497;-73
2022/03/22 11:51:49;;;;;;;18.17;14.60;;;;;;;;;;5110334;28;20475;-73
2022/03/22 11:54:16;;;;;;;16.83;14.20;;;;;;;;;;5109672;28;20484;-73
2022/03/22 11:56:47;;;;;;;18.20;14.27;;;;;;;;;;5110196;28;20505;-73
2022/03/22 11:59:16;;;;;;;20.20;14.60;;;;;;;;;;5108509;28;20940;-72
2022/03/22 12:01:43;;;;;;;18.83;14.53;;;;;;;;;;5111307;28;20435;-75
2022/03/22 12:04:17;;;;;;;18.60;13.83;;;;;;;;;;5112216;28;20509;-74
2022/03/22 12:06:45;;;;;;;16.70;12.90;;;;;;;;;;5104294;28;20471;-74
2022/03/22 12:09:13;;;;;;;17.90;12.53;;;;;;;;;;5112413;28;20444;-74
2022/03/22 12:11:49;;;;;;;15.77;12.90;;;;;;;;;;5111635;28;20440;-73
2022/03/22 12:14:26;;;;;;;16.47;12.63;;;;;;;;;;5112393;28;20478;-73
2022/03/22 12:16:53;;;;;;;17.17;12.93;;;;;;;;;;5111979;28;20447;-75
2022/03/22 12:19:26;;;;;;;15.40;12.23;;;;;;;;;;5111882;28;20472;-74
2022/03/22 12:21:54;;;;;;;18.20;13.57;;;;;;;;;;5110867;28;20440;-73
2022/03/22 12:24:22;;;;;;;15.13;12.30;;;;;;;;;;5110825;28;20450;-72
2022/03/22 12:26:50;;;;;;;17.47;13.40;;;;;;;;;;5098502;28;20478;-72
2022/03/22 12:29:17;;;;;;;14.73;12.17;;;;;;;;;;5108226;28;20454;-73
2022/03/22 12:31:51;;;;;;;17.80;12.77;;;;;;;;;;5099614;28;20539;-72
2022/03/22 12:34:18;;;;;;;15.90;13.30;;;;;;;;;;5106730;28;20978;-72
2022/03/22 12:36:46;;;;;;;17.70;13.70;;;;;;;;;;5107654;28;20448;-72
2022/03/22 12:39:13;;;;;;;17.83;12.90;;;;;;;;;;5111055;28;20508;-72
2022/03/22 12:41:43;;;;;;;16.90;13.60;;;;;;;;;;5108856;28;20534;-72
2022/03/22 12:44:11;;;;;;;15.57;12.27;;;;;;;;;;5109561;28;20848;-72
2022/03/22 12:46:38;;;;;;;14.93;11.77;;;;;;;;;;5106869;28;21370;-72
2022/03/22 12:49:06;;;;;;;18.23;13.30;;;;;;;;;;5105207;28;20439;-72
2022/03/22 12:51:34;;;;;;;17.43;13.47;;;;;;;;;;5107212;28;20442;-72
2022/03/22 12:54:04;;;;;;;23.33;15.23;;;;;;;;;;5107173;28;20452;-72
2022/03/22 12:56:32;;;;;;;19.23;14.23;;;;;;;;;;5107213;28;20471;-72
2022/03/22 12:59:01;;;;;;;20.10;14.10;;;;;;;;;;5108501;28;20451;-73
2022/03/22 13:01:38;;;;;;;18.33;12.97;;;;;;;;;;5105374;28;20451;-72
2022/03/22 13:04:06;;;;;;;21.77;13.90;;;;;;;;;;5106722;28;20443;-73
2022/03/22 13:06:34;;;;;;;17.50;14.10;;;;;;;;;;5106711;28;20482;-73
2022/03/22 13:11:47;;;;;;;15.10;12.70;;;;;;;;;;5110332;28;21056;-73
2022/03/22 13:17:00;;;;;;;18.80;14.17;;;;;;;;;;5107010;28;20431;-72
2022/03/22 13:19:32;;;;;;;21.40;13.93;;;;;;;;;;5109975;28;20536;-73
2022/03/22 13:22:00;;;;;;;19.83;14.93;;;;;;;;;;5103675;28;20451;-72
2022/03/22 13:24:29;;;;;;;17.83;13.67;;;;;;;;;;5107382;28;20454;-72
2022/03/22 13:26:58;;;;;;;18.23;13.07;;;;;;;;;;5110596;28;20476;-72
2022/03/22 13:29:34;;;;;;;20.23;13.40;;;;;;;;;;5109746;28;20483;-73
2022/03/22 13:32:03;;;;;;;21.03;13.40;;;;;;;;;;5109707;28;20447;-73
2022/03/22 13:34:31;;;;;;;20.63;13.40;;;;;;;;;;5108788;28;20445;-72
2022/03/22 13:37:05;;;;;;;17.53;13.37;;;;;;;;;;5101775;28;20479;-72
2022/03/22 13:39:32;;;;;;;14.60;12.63;;;;;;;;;;5105233;28;20539;-73
2022/03/22 13:42:08;;;;;;;15.57;12.70;;;;;;;;;;5109888;28;20859;-72
2022/03/22 13:44:43;;;;;;;16.43;13.03;;;;;;;;;;5109606;28;20478;-72
2022/03/22 13:47:11;;;;;;;12.83;11.53;;;;;;;;;;5105419;28;20464;-73
2022/03/22 13:49:38;;;;;;;16.47;11.73;;;;;;;;;;5106456;28;20490;-72
2022/03/22 13:52:06;;;;;;;23.70;12.53;;;;;;;;;;5103579;28;20525;-72
2022/03/22 13:54:33;;;;;;;16.50;12.70;;;;;;;;;;5104410;28;20487;-73
2022/03/22 13:57:07;;;;;;;18.60;13.60;;;;;;;;;;5105003;28;20472;-73
2022/03/22 13:59:42;;;;;;;16.70;13.90;;;;;;;;;;5105091;28;20470;-73
2022/03/22 14:02:09;;;;;;;14.03;12.23;;;;;;;;;;5107314;28;20451;-73
2022/03/22 14:04:37;;;;;;;13.00;11.70;;;;;;;;;;5109655;28;20490;-73
2022/03/22 14:07:04;;;;;;;14.03;12.50;;;;;;;;;;5103873;28;20570;-73
2022/03/22 14:09:32;;;;;;;16.83;11.13;;;;;;;;;;5106397;28;20439;-73
2022/03/22 14:12:00;;;;;;;16.60;12.83;;;;;;;;;;5105103;28;20454;-73
2022/03/22 14:14:27;;;;;;;17.87;12.07;;;;;;;;;;5109220;28;20468;-73
2022/03/22 14:16:55;;;;;;;14.37;11.20;;;;;;;;;;5109487;28;20490;-74
2022/03/22 14:19:23;;;;;;;17.37;12.20;;;;;;;;;;5106603;28;20923;-73
2022/03/22 14:21:50;;;;;;;14.67;12.10;;;;;;;;;;5112286;28;20447;-73
2022/03/22 14:24:17;;;;;;;15.53;11.47;;;;;;;;;;5113189;28;20479;-73
2022/03/22 14:26:44;;;;;;;13.40;11.60;;;;;;;;;;5102555;28;20487;-73
2022/03/22 14:29:12;;;;;;;13.93;12.10;;;;;;;;;;5113122;28;20469;-73
2022/03/22 14:31:39;;;;;;;17.83;13.57;;;;;;;;;;5111996;28;20909;-73
2022/03/22 14:34:12;;;;;;;18.17;13.33;;;;;;;;;;5112891;28;20431;-72
2022/03/22 14:36:38;;;;;;;16.53;12.90;;;;;;;;;;5109053;28;20872;-72
2022/03/22 14:39:05;;;;;;;15.90;13.23;;;;;;;;;;5105243;28;20937;-72
2022/03/22 14:41:33;;;;;;;15.10;12.53;;;;;;;;;;5110131;28;20479;-73
2022/03/22 14:44:02;;;;;;;16.23;12.70;;;;;;;;;;5112766;28;20596;-72
2022/03/22 14:46:31;;;;;;;16.13;13.60;;;;;;;;;;5110371;28;20486;-71
2022/03/22 14:48:58;;;;;;;14.87;13.27;;;;;;;;;;5108148;28;20459;-72
2022/03/22 14:54:13;;;;;;;16.77;13.63;;;;;;;;;;5106381;28;20451;-73
2022/03/22 14:59:25;;;;;;;14.77;12.30;;;;;;;;;;5109635;28;20418;-73
2022/03/22 15:01:53;;;;;;;17.80;14.77;;;;;;;;;;5105295;28;20613;-74
2022/03/22 15:04:22;;;;;;;14.53;12.67;;;;;;;;;;5110156;28;20447;-73
2022/03/22 15:06:53;;;;;;;14.57;13.07;;;;;;;;;;5109075;28;20475;-72
2022/03/22 15:09:20;;;;;;;17.23;12.50;;;;;;;;;;5111495;28;20447;-73
2022/03/22 15:11:50;;;;;;;18.40;13.37;;;;;;;;;;5109202;28;20885;-73